Terminal Aerodrome Forecast
Issued by NWS Tulsa, OK

Home | Current Version | Previous Version | Text Only | Print | Product List | Glossary On
Versions: 1 2 3 4 5 6 7 8 9 10 11 12 13 14 15 16 17 18
000
FTUS44 KTSA 171100
TAFTUL
TAF
KTUL 171135Z 1712/1812 18008KT P6SM SCT003
      TEMPO 1712/1714 3SM BR BKN003
     FM171400 21010KT P6SM SCT250
     FM171700 21010KT P6SM SCT040
     FM180000 17007KT P6SM BKN250
     FM180900 16005KT 5SM BR SCT020=

USA.gov is the U.S. government's official web portal to all federal, state and local government web resources and services.